createdAt,value
2023-08-02T00:01:59.874Z,31.11
2023-08-02T00:04:31.554Z,31.09
2023-08-02T00:07:05.610Z,31.12
2023-08-02T00:09:37.877Z,31.09
2023-08-02T00:12:10.772Z,31.14
2023-08-02T00:14:41.524Z,31.08
2023-08-02T00:17:13.437Z,31.08
2023-08-02T00:19:48.967Z,31.12
2023-08-02T00:22:20.469Z,31.10
2023-08-02T00:24:51.508Z,31.11
2023-08-02T00:27:25.312Z,31.10
2023-08-02T00:29:56.405Z,31.05
2023-08-02T00:32:27.686Z,31.03
2023-08-02T00:34:59.052Z,31.07
2023-08-02T00:37:33.950Z,31.11
2023-08-02T00:40:06.745Z,31.14
2023-08-02T00:42:41.899Z,31.16
2023-08-02T00:45:13.307Z,31.17
2023-08-02T00:47:43.830Z,31.19
2023-08-02T00:50:14.532Z,31.21
2023-08-02T00:52:45.169Z,31.19
2023-08-02T00:55:15.860Z,31.27
2023-08-02T00:57:46.711Z,31.29
2023-08-02T01:00:17.508Z,31.31
2023-08-02T01:02:48.549Z,31.29
2023-08-02T01:05:20.388Z,31.32
2023-08-02T01:08:01.778Z,31.46
2023-08-02T01:10:48.587Z,31.51
2023-08-02T01:13:21.786Z,31.45
2023-08-02T01:15:52.596Z,31.38
2023-08-02T01:18:23.747Z,31.42
2023-08-02T01:20:54.820Z,31.45
2023-08-02T01:23:25.989Z,31.50
2023-08-02T01:26:02.935Z,31.63
2023-08-02T01:28:40.480Z,31.66
2023-08-02T01:31:14.180Z,31.66
2023-08-02T01:33:56.584Z,31.77
2023-08-02T01:36:27.602Z,31.91
2023-08-02T01:38:58.794Z,31.74
2023-08-02T01:41:29.630Z,31.79
2023-08-02T01:44:04.477Z,31.83
2023-08-02T01:46:35.588Z,31.86
2023-08-02T01:49:06.892Z,31.87
2023-08-02T01:51:38.256Z,31.94
2023-08-02T01:54:10.067Z,31.94
2023-08-02T01:56:42.574Z,32.01
2023-08-02T01:59:14.975Z,32.04
2023-08-02T02:01:45.973Z,32.11
2023-08-02T02:04:17.040Z,32.16
2023-08-02T02:06:48.442Z,32.19
2023-08-02T02:09:19.983Z,32.17
2023-08-02T02:11:51.963Z,32.27
2023-08-02T02:14:26.723Z,32.35
2023-08-02T02:16:57.766Z,32.36
2023-08-02T02:19:28.875Z,32.39
2023-08-02T02:21:59.853Z,32.43
2023-08-02T02:24:31.095Z,32.45
2023-08-02T02:27:02.117Z,32.55
2023-08-02T02:29:33.086Z,32.58
2023-08-02T02:32:03.751Z,32.58
2023-08-02T02:34:34.693Z,32.64
2023-08-02T02:37:05.452Z,32.69
2023-08-02T02:39:36.397Z,32.63
2023-08-02T02:42:07.780Z,32.80
2023-08-02T02:44:45.891Z,32.92
2023-08-02T02:47:17.077Z,32.86
2023-08-02T02:49:49.586Z,32.94
2023-08-02T02:52:20.378Z,33.01
2023-08-02T02:54:51.290Z,33.08
2023-08-02T02:57:21.902Z,33.14
2023-08-02T02:59:53.719Z,33.17
2023-08-02T03:02:24.257Z,33.42
2023-08-02T03:04:55.525Z,33.22
2023-08-02T03:07:26.136Z,33.20
2023-08-02T03:09:56.931Z,33.22
2023-08-02T03:12:27.595Z,33.35
2023-08-02T03:14:58.694Z,33.40
2023-08-02T03:17:30.307Z,33.51
2023-08-02T03:20:01.225Z,33.47
2023-08-02T03:22:32.104Z,33.57
2023-08-02T03:25:02.973Z,33.53
2023-08-02T03:27:33.728Z,33.50
2023-08-02T03:30:08.116Z,33.53
2023-08-02T03:32:39.182Z,33.64
2023-08-02T03:35:10.235Z,33.61
2023-08-02T03:37:40.957Z,33.70
2023-08-02T03:40:12.771Z,33.84
2023-08-02T03:42:44.074Z,33.88
2023-08-02T03:45:14.931Z,33.98
2023-08-02T03:47:45.687Z,34.10
2023-08-02T03:50:16.830Z,34.23
2023-08-02T03:52:48.438Z,34.24
2023-08-02T03:55:19.680Z,34.35
2023-08-02T03:57:50.511Z,34.48
2023-08-02T04:00:21.638Z,34.62
2023-08-02T04:02:53.115Z,34.55
2023-08-02T04:05:24.646Z,34.58
2023-08-02T04:07:56.067Z,34.77
2023-08-02T04:10:27.718Z,34.89
2023-08-02T04:12:58.779Z,34.99
2023-08-02T04:15:29.979Z,35.10
2023-08-02T04:18:01.754Z,35.02
2023-08-02T04:20:33.783Z,34.95
2023-08-02T04:23:04.670Z,35.18
2023-08-02T04:25:35.524Z,35.25
2023-08-02T04:28:06.589Z,35.43
2023-08-02T04:30:37.963Z,35.47
2023-08-02T04:33:09.080Z,35.72
2023-08-02T04:35:40.342Z,35.84
2023-08-02T04:38:12.112Z,35.86
2023-08-02T04:40:42.986Z,35.81
2023-08-02T04:43:13.306Z,35.91
2023-08-02T04:45:43.871Z,35.92
2023-08-02T04:48:14.335Z,36.17
2023-08-02T04:50:46.313Z,36.28
2023-08-02T04:53:16.899Z,36.31
2023-08-02T04:55:48.540Z,36.45
2023-08-02T04:58:19.094Z,36.27
2023-08-02T05:00:49.686Z,36.29
2023-08-02T05:03:20.292Z,36.12
2023-08-02T05:05:52.296Z,36.14
2023-08-02T05:08:22.825Z,36.03
2023-08-02T05:10:53.434Z,35.90
2023-08-02T05:13:26.067Z,35.95
2023-08-02T05:15:58.835Z,36.08
2023-08-02T05:18:29.451Z,36.13
2023-08-02T05:21:03.982Z,36.43
2023-08-02T05:23:43.278Z,36.51
2023-08-02T05:26:15.514Z,36.68
2023-08-02T05:28:46.006Z,36.78
2023-08-02T05:31:17.887Z,37.03
2023-08-02T05:33:50.921Z,37.14
2023-08-02T05:36:21.651Z,37.17
2023-08-02T05:38:52.337Z,37.22
2023-08-02T05:41:22.802Z,37.29
2023-08-02T05:43:56.269Z,37.31
2023-08-02T05:46:26.602Z,37.20
2023-08-02T05:48:57.076Z,37.24
2023-08-02T05:51:28.001Z,37.30
2023-08-02T05:53:58.572Z,37.52
2023-08-02T05:56:35.603Z,37.60
2023-08-02T06:02:34.275Z,37.77
2023-08-02T06:05:22.891Z,37.77
2023-08-02T06:10:59.076Z,37.85
2023-08-02T06:13:31.710Z,37.84
2023-08-02T06:16:02.161Z,37.90
2023-08-02T06:18:33.108Z,37.96
2023-08-02T06:21:03.533Z,37.85
2023-08-02T06:23:33.913Z,37.68
2023-08-02T06:26:04.626Z,37.98
2023-08-02T06:28:35.439Z,38.18
2023-08-02T06:31:08.416Z,38.19
2023-08-02T06:33:41.945Z,38.18
2023-08-02T06:36:13.323Z,38.24
2023-08-02T06:38:44.359Z,38.12
2023-08-02T06:41:15.239Z,38.38
2023-08-02T06:43:45.841Z,38.38
2023-08-02T06:46:41.274Z,38.45
2023-08-02T06:49:30.530Z,38.30
2023-08-02T06:52:05.960Z,38.26
2023-08-02T06:54:38.825Z,38.26
2023-08-02T06:57:18.003Z,38.20
2023-08-02T06:59:59.115Z,38.60
2023-08-02T07:02:38.409Z,38.60
2023-08-02T07:05:10.925Z,38.75
2023-08-02T07:07:43.864Z,38.53
2023-08-02T07:10:20.462Z,38.76
2023-08-02T07:12:57.571Z,38.58
2023-08-02T07:15:30.141Z,38.52
2023-08-02T07:18:07.156Z,38.48
2023-08-02T07:20:37.871Z,38.69
2023-08-02T07:23:08.316Z,38.78
2023-08-02T07:25:39.188Z,38.73
2023-08-02T07:28:09.742Z,38.79
2023-08-02T07:30:44.139Z,38.84
2023-08-02T07:33:18.082Z,38.83
2023-08-02T07:35:49.415Z,38.98
2023-08-02T07:38:20.109Z,39.13
2023-08-02T07:40:50.899Z,39.10
2023-08-02T07:43:35.228Z,39.19
2023-08-02T07:46:18.127Z,38.96
2023-08-02T07:48:49.059Z,38.90
2023-08-02T07:51:20.085Z,38.91
2023-08-02T07:53:52.432Z,38.95
2023-08-02T07:56:23.941Z,39.08
2023-08-02T07:58:54.283Z,38.87
2023-08-02T08:01:24.916Z,39.08
2023-08-02T08:03:55.675Z,39.09
2023-08-02T08:06:29.183Z,39.13
2023-08-02T08:08:59.818Z,38.97
2023-08-02T08:11:31.634Z,38.99
2023-08-02T08:14:01.571Z,39.18
2023-08-02T08:16:35.375Z,39.09
2023-08-02T08:19:06.076Z,39.21
2023-08-02T08:21:40.746Z,39.21
2023-08-02T08:24:12.858Z,39.12
2023-08-02T08:26:43.653Z,39.23
2023-08-02T08:29:14.548Z,39.18
2023-08-02T08:31:45.831Z,39.23
2023-08-02T08:34:16.624Z,39.01
2023-08-02T08:36:50.476Z,39.03
2023-08-02T08:39:22.019Z,39.27
2023-08-02T08:44:51.955Z,39.26
2023-08-02T08:47:23.492Z,39.40
2023-08-02T08:49:54.847Z,39.43
2023-08-02T08:52:25.474Z,39.31
2023-08-02T08:54:56.439Z,39.34
2023-08-02T08:57:27.630Z,39.26
2023-08-02T08:59:59.434Z,39.01
2023-08-02T09:02:32.141Z,38.81
2023-08-02T09:05:08.031Z,39.02
2023-08-02T09:07:38.549Z,39.00
2023-08-02T09:10:09.831Z,39.11
2023-08-02T09:12:49.406Z,39.25
2023-08-02T09:15:20.588Z,38.96
2023-08-02T09:18:00.560Z,39.01
2023-08-02T09:20:33.989Z,39.08
2023-08-02T09:23:22.058Z,39.18
2023-08-02T09:26:25.141Z,39.22
2023-08-02T09:29:06.416Z,39.14
2023-08-02T09:31:42.162Z,39.14
2023-08-02T09:34:12.916Z,39.15
2023-08-02T09:36:43.607Z,39.17
2023-08-02T09:39:19.466Z,39.02
2023-08-02T09:41:58.893Z,39.05
2023-08-02T09:44:31.376Z,38.97
2023-08-02T09:47:12.129Z,39.13
2023-08-02T09:49:42.689Z,38.94
2023-08-02T09:52:13.699Z,39.00
2023-08-02T09:54:44.212Z,39.07
2023-08-02T09:57:14.925Z,38.83
2023-08-02T09:59:48.520Z,38.82
2023-08-02T10:02:20.626Z,38.93
2023-08-02T10:04:52.759Z,38.92
2023-08-02T10:07:24.208Z,38.95
2023-08-02T10:10:01.149Z,38.83
2023-08-02T10:12:55.361Z,38.80
2023-08-02T10:15:36.567Z,38.71
2023-08-02T10:18:08.774Z,38.49
2023-08-02T10:20:46.507Z,38.44
2023-08-02T10:23:24.536Z,38.22
2023-08-02T10:25:56.442Z,38.21
2023-08-02T10:28:28.003Z,38.27
2023-08-02T10:30:58.985Z,38.24
2023-08-02T10:33:31.168Z,38.16
2023-08-02T10:36:10.001Z,38.21
2023-08-02T10:38:55.458Z,37.91
2023-08-02T10:41:32.872Z,37.91
2023-08-02T10:44:25.286Z,37.86
2023-08-02T10:47:38.671Z,37.92
2023-08-02T10:50:10.355Z,37.83
2023-08-02T10:52:45.008Z,37.64
2023-08-02T10:55:21.409Z,37.64
2023-08-02T10:57:58.072Z,37.58
2023-08-02T11:00:34.627Z,37.46
2023-08-02T11:03:08.283Z,37.33
2023-08-02T11:05:46.315Z,37.33
2023-08-02T11:08:17.038Z,37.23
2023-08-02T11:10:57.376Z,37.24
2023-08-02T11:13:43.390Z,37.25
2023-08-02T11:16:15.647Z,37.16
2023-08-02T11:18:47.581Z,37.26
2023-08-02T11:21:18.035Z,37.32
2023-08-02T11:26:26.829Z,37.43
2023-08-02T11:28:57.392Z,37.49
2023-08-02T11:31:31.351Z,37.21
2023-08-02T11:34:01.921Z,36.88
2023-08-02T11:36:57.237Z,36.77
2023-08-02T11:39:29.435Z,36.59
2023-08-02T11:42:07.532Z,36.71
2023-08-02T11:44:39.328Z,36.91
2023-08-02T11:47:12.784Z,36.98
2023-08-02T11:49:59.021Z,36.91
2023-08-02T11:52:35.041Z,36.92
2023-08-02T11:55:05.912Z,36.81
2023-08-02T11:57:36.833Z,36.61
2023-08-02T12:00:11.817Z,36.62
2023-08-02T12:02:42.395Z,36.66
2023-08-02T12:05:22.229Z,36.78
2023-08-02T12:07:53.250Z,36.57
2023-08-02T12:10:31.428Z,36.55
2023-08-02T12:13:09.552Z,36.58
2023-08-02T12:15:40.854Z,36.43
2023-08-02T12:18:11.728Z,36.45
2023-08-02T12:20:45.268Z,36.38
2023-08-02T12:23:32.827Z,35.98
2023-08-02T12:26:06.176Z,35.66
2023-08-02T12:28:50.579Z,35.76
2023-08-02T12:31:26.049Z,35.70
2023-08-02T12:33:57.299Z,35.57
2023-08-02T12:36:31.704Z,35.53
2023-08-02T12:39:02.447Z,35.50
2023-08-02T12:41:33.322Z,35.39
2023-08-02T12:44:06.027Z,35.45
2023-08-02T12:46:37.365Z,35.45
2023-08-02T12:49:08.240Z,35.54
2023-08-02T12:51:41.197Z,35.63
2023-08-02T12:54:12.142Z,35.66
2023-08-02T12:56:42.962Z,35.61
2023-08-02T12:59:13.872Z,35.30
2023-08-02T13:01:47.429Z,35.45
2023-08-02T13:04:20.417Z,35.63
2023-08-02T13:06:55.969Z,35.59
2023-08-02T13:09:27.641Z,35.63
2023-08-02T13:12:07.694Z,35.64
2023-08-02T13:14:42.205Z,35.68
2023-08-02T13:17:15.820Z,35.65
2023-08-02T13:19:46.608Z,35.61
2023-08-02T13:22:18.053Z,35.75
2023-08-02T13:24:49.549Z,35.77
2023-08-02T13:27:19.872Z,35.70
2023-08-02T13:29:50.641Z,35.69
2023-08-02T13:32:21.860Z,35.67
2023-08-02T13:34:52.461Z,35.59
2023-08-02T13:37:23.147Z,35.38
2023-08-02T13:39:53.863Z,34.87
2023-08-02T13:42:27.305Z,34.54
2023-08-02T13:44:58.998Z,34.45
2023-08-02T13:47:29.802Z,34.68
2023-08-02T13:50:00.351Z,34.44
2023-08-02T13:52:31.210Z,34.44
2023-08-02T13:55:02.057Z,34.10
2023-08-02T13:57:32.763Z,33.88
2023-08-02T14:00:03.561Z,33.66
2023-08-02T14:02:34.658Z,33.67
2023-08-02T14:05:06.780Z,33.69
2023-08-02T14:07:38.434Z,33.39
2023-08-02T14:10:09.656Z,33.58
2023-08-02T14:12:43.221Z,33.49
2023-08-02T14:15:19.799Z,33.16
2023-08-02T14:17:50.492Z,32.94
2023-08-02T14:20:24.528Z,32.46
2023-08-02T14:23:10.947Z,32.05
2023-08-02T14:25:41.561Z,31.96
2023-08-02T14:28:15.790Z,31.80
2023-08-02T14:30:47.047Z,31.74
2023-08-02T14:33:26.594Z,31.85
2023-08-02T14:35:57.846Z,32.04
2023-08-02T14:38:34.413Z,31.94
2023-08-02T14:41:05.078Z,31.84
2023-08-02T14:43:39.259Z,32.04
2023-08-02T14:46:10.890Z,32.03
2023-08-02T14:48:41.707Z,32.00
2023-08-02T14:51:12.806Z,32.00
2023-08-02T14:53:44.681Z,32.08
2023-08-02T14:56:15.997Z,32.05
2023-08-02T14:58:46.408Z,31.97
2023-08-02T15:01:17.240Z,31.99
2023-08-02T15:03:49.285Z,31.98
2023-08-02T15:06:21.786Z,32.01
2023-08-02T15:08:52.396Z,32.01
2023-08-02T15:11:23.166Z,31.92
2023-08-02T15:13:53.888Z,31.93
2023-08-02T15:16:24.947Z,32.00
2023-08-02T15:18:56.154Z,32.09
2023-08-02T15:21:26.745Z,32.16
2023-08-02T15:23:57.371Z,31.92
2023-08-02T15:26:28.213Z,32.10
2023-08-02T15:28:59.978Z,32.24
2023-08-02T15:31:32.710Z,32.24
2023-08-02T15:34:03.566Z,32.21
2023-08-02T15:36:34.459Z,32.11
2023-08-02T15:39:06.158Z,31.97
2023-08-02T15:41:36.559Z,31.96
2023-08-02T15:44:07.846Z,32.00
2023-08-02T15:46:38.663Z,32.01
2023-08-02T15:49:13.804Z,31.97
2023-08-02T15:51:44.407Z,31.95
2023-08-02T15:54:16.526Z,31.66
2023-08-02T15:56:46.995Z,31.92
2023-08-02T15:59:20.866Z,31.72
2023-08-02T16:01:52.185Z,31.79
2023-08-02T16:04:23.127Z,31.83
2023-08-02T16:06:56.994Z,31.82
2023-08-02T16:09:30.979Z,31.86
2023-08-02T16:12:01.412Z,31.85
2023-08-02T16:14:32.199Z,31.88
2023-08-02T16:17:02.728Z,31.85
2023-08-02T16:19:34.386Z,31.83
2023-08-02T16:22:05.135Z,31.81
2023-08-02T16:24:35.756Z,31.77
2023-08-02T16:27:06.550Z,31.65
2023-08-02T16:29:37.182Z,31.78
2023-08-02T16:32:08.041Z,31.84
2023-08-02T16:34:38.842Z,31.91
2023-08-02T16:37:09.661Z,31.82
2023-08-02T16:39:41.439Z,31.80
2023-08-02T16:42:12.534Z,31.76
2023-08-02T16:44:43.388Z,31.67
2023-08-02T16:47:13.824Z,31.69
2023-08-02T16:49:44.741Z,31.65
2023-08-02T16:52:15.105Z,31.65
2023-08-02T16:54:46.103Z,31.63
2023-08-02T16:57:16.803Z,31.70
2023-08-02T16:59:47.718Z,31.64
2023-08-02T17:02:18.279Z,31.69
2023-08-02T17:04:49.009Z,31.66
2023-08-02T17:07:19.641Z,31.68
2023-08-02T17:09:50.450Z,31.69
2023-08-02T17:12:21.166Z,31.65
2023-08-02T17:14:53.151Z,31.69
2023-08-02T17:17:23.678Z,31.66
2023-08-02T17:19:54.918Z,31.69
2023-08-02T17:22:25.456Z,31.62
2023-08-02T17:24:56.821Z,31.69
2023-08-02T17:27:27.193Z,31.63
2023-08-02T17:29:58.308Z,31.66
2023-08-02T17:32:28.798Z,31.66
2023-08-02T17:34:59.950Z,31.61
2023-08-02T17:37:30.327Z,31.64
2023-08-02T17:40:01.338Z,31.71
2023-08-02T17:42:31.729Z,31.71
2023-08-02T17:45:02.219Z,31.73
2023-08-02T17:47:32.691Z,31.66
2023-08-02T17:50:03.460Z,31.59
2023-08-02T17:52:33.943Z,31.64
2023-08-02T17:55:04.675Z,31.67
2023-08-02T17:57:35.414Z,31.63
2023-08-02T18:00:08.380Z,31.60
2023-08-02T18:02:42.263Z,31.58
2023-08-02T18:05:13.115Z,31.57
2023-08-02T18:07:43.844Z,31.59
2023-08-02T18:10:16.024Z,31.57
2023-08-02T18:12:46.439Z,31.59
2023-08-02T18:15:20.128Z,31.62
2023-08-02T18:17:50.681Z,31.60
2023-08-02T18:20:21.472Z,31.56
2023-08-02T18:22:51.834Z,31.58
2023-08-02T18:25:22.414Z,31.60
2023-08-02T18:27:53.741Z,31.63
2023-08-02T18:30:24.561Z,31.61
2023-08-02T18:32:56.122Z,31.59
2023-08-02T18:35:27.170Z,31.59
2023-08-02T18:37:57.634Z,31.56
2023-08-02T18:40:28.385Z,31.58
2023-08-02T18:42:58.886Z,31.59
2023-08-02T18:45:30.544Z,31.57
2023-08-02T18:48:01.232Z,31.62
2023-08-02T18:50:49.497Z,31.70
2023-08-02T18:53:20.375Z,31.64
2023-08-02T18:55:51.148Z,31.65
2023-08-02T18:58:22.119Z,31.57
2023-08-02T19:00:55.008Z,31.56
2023-08-02T19:03:26.871Z,31.58
2023-08-02T19:06:02.377Z,31.62
2023-08-02T19:08:45.857Z,31.66
2023-08-02T19:11:28.060Z,31.68
2023-08-02T19:13:58.956Z,31.53
2023-08-02T19:16:33.250Z,31.59
2023-08-02T19:19:05.549Z,31.49
2023-08-02T19:21:37.945Z,31.47
2023-08-02T19:24:11.540Z,31.53
2023-08-02T19:26:42.387Z,31.43
2023-08-02T19:29:20.311Z,31.48
2023-08-02T19:31:51.554Z,31.43
2023-08-02T19:34:23.971Z,31.48
2023-08-02T19:36:55.749Z,31.44
2023-08-02T19:39:41.098Z,31.50
2023-08-02T19:42:16.073Z,31.47
2023-08-02T19:44:53.571Z,31.56
2023-08-02T19:47:31.611Z,31.51
2023-08-02T19:50:02.977Z,31.44
2023-08-02T19:52:34.292Z,31.45
2023-08-02T19:55:08.986Z,31.42
2023-08-02T19:57:45.548Z,31.45
2023-08-02T20:00:21.286Z,31.45
2023-08-02T20:02:52.838Z,31.39
2023-08-02T20:05:48.717Z,31.53
2023-08-02T20:08:23.704Z,31.46
2023-08-02T20:10:57.675Z,31.40
2023-08-02T20:13:40.350Z,31.51
2023-08-02T20:16:16.586Z,31.39
2023-08-02T20:18:50.465Z,31.27
2023-08-02T20:21:23.522Z,31.36
2023-08-02T20:24:07.404Z,31.43
2023-08-02T20:26:38.535Z,31.30
2023-08-02T20:29:09.261Z,31.22
2023-08-02T20:31:43.783Z,31.29
2023-08-02T20:34:15.670Z,31.27
2023-08-02T20:36:46.755Z,31.22
2023-08-02T20:39:19.396Z,31.25
2023-08-02T20:41:51.640Z,31.28
2023-08-02T20:44:28.569Z,31.34
2023-08-02T20:46:59.888Z,31.12
2023-08-02T20:49:33.487Z,31.26
2023-08-02T20:52:04.014Z,31.33
2023-08-02T20:54:35.145Z,31.35
2023-08-02T20:57:06.376Z,31.33
2023-08-02T20:59:39.834Z,31.26
2023-08-02T21:02:21.682Z,31.33
2023-08-02T21:04:52.941Z,31.27
2023-08-02T21:07:30.133Z,31.31
2023-08-02T21:10:00.787Z,31.21
2023-08-02T21:12:31.521Z,31.22
2023-08-02T21:15:02.066Z,31.21
2023-08-02T21:17:32.499Z,31.21
2023-08-02T21:20:27.069Z,31.34
2023-08-02T21:22:57.795Z,31.03
2023-08-02T21:25:28.391Z,31.16
2023-08-02T21:27:58.755Z,31.16
2023-08-02T21:30:29.735Z,31.23
2023-08-02T21:33:00.219Z,31.31
2023-08-02T21:35:32.567Z,31.16
2023-08-02T21:38:02.273Z,31.34
2023-08-02T21:40:33.192Z,31.30
2023-08-02T21:43:03.655Z,31.19
2023-08-02T21:45:34.375Z,31.20
2023-08-02T21:48:08.741Z,31.27
2023-08-02T21:50:39.438Z,31.20
2023-08-02T21:53:12.336Z,31.23
2023-08-02T21:55:43.052Z,31.16
2023-08-02T21:58:21.256Z,31.25
2023-08-02T22:00:55.113Z,31.27
2023-08-02T22:03:26.291Z,31.10
2023-08-02T22:06:04.215Z,31.25
2023-08-02T22:30:24.133Z,31.07
2023-08-02T22:33:14.923Z,31.01
2023-08-02T22:35:45.446Z,31.05
2023-08-02T22:38:15.875Z,31.05
2023-08-02T22:40:47.760Z,31.03
2023-08-02T22:43:18.015Z,30.98
2023-08-02T22:45:48.430Z,31.01
2023-08-02T22:50:56.045Z,30.99
2023-08-02T22:53:26.955Z,30.95
2023-08-02T22:55:58.509Z,30.92
2023-08-02T22:58:29.122Z,30.94
2023-08-02T23:00:59.368Z,30.92
2023-08-02T23:03:46.152Z,31.02
2023-08-02T23:06:28.356Z,30.99
2023-08-02T23:08:59.480Z,30.88
2023-08-02T23:11:30.884Z,30.84
2023-08-02T23:14:01.079Z,30.91
2023-08-02T23:16:31.441Z,30.86
2023-08-02T23:19:04.856Z,30.86
2023-08-02T23:21:38.377Z,30.89
2023-08-02T23:24:14.717Z,30.89
2023-08-02T23:26:44.882Z,30.78
2023-08-02T23:29:15.320Z,30.80
2023-08-02T23:31:46.923Z,30.84
2023-08-02T23:34:17.615Z,30.85
2023-08-02T23:36:47.772Z,30.80
2023-08-02T23:39:18.392Z,30.87
2023-08-02T23:41:48.600Z,30.88
2023-08-02T23:44:18.892Z,30.92
2023-08-02T23:46:49.466Z,30.87
2023-08-02T23:49:19.796Z,30.90
2023-08-02T23:51:50.002Z,30.87
2023-08-02T23:54:20.368Z,30.91
2023-08-02T23:56:50.536Z,30.88
2023-08-02T23:59:21.117Z,30.93
